Hill Air Force Base
KHIF : now visible

Airfield :











YOU CAN JOIN US ON...

 
LOGIN :

Register | Disclaimer

   EN    FR    IT 

 









Legend :    VFR   Marginal VFR   IFR   Intensive IFR   Very Intensive IFR
Visi :
Ceiling :
>= 8 km
>= 3000ft
5 to 8 km
1000 to 3000 ft
1500m to 5 km
500 to 1000 ft
800 to 1500m
200 to 500 ft
< 800m
< 200 ft
Symbols :   Thunderstorms  Fog  Heavy snow  Heavy precipitations  Wind > 20 kt






- Airport Elevation : 4789 ft


KHIF - Hill Air Force Base

EXPIRED METARs :
  • 281955Z 32007KT 10SM FEW100 28/04 A3005 RMK AO2A SLP122 T02780035
  • 281855Z 00000KT 10SM FEW100 27/03 A3007 RMK AO2A SLP128 T02680026
  • 281755Z AUTO 10004KT 10SM CLR 25/04 A3009 RMK AO2 SLP135 T02460038 10246 20119 58005

TAF TAF KHIF
Valid from the 28 at 13:00 until the 29 at 19:00 UTC


281300Z 2813/2919 07012G18KT 9999 SKC QNH3008INS
BECMG 2817/2818 19009KT 9999 FEW250 QNH3005INS
BECMG 2901/2902 VRB06KT 9999 SKC QNH2997INS TX28/2821Z TN12/2813Z
KZLC FIR / North America



MET'MAP, your aeronautical weather chart ! - Copyright ORBIFLY December 2007 - Disclaimer

ORBIFLY MET'MAP TEAM :

Programming & Development : Alexandra Zaïnal
Original concept : Baudouin d'Aumeries
Technical & hardware support : Manuel Goepfert
Assistance : Marc-Olivier Méhu




SOURCES & CREDITS :

   NOAA       Earth
Advisory